Latest Weather Observations for Little Bay

IDN60801

Issued at 11:32 pm EST Thursday 28 May 2015 (issued every 30 minutes, with the page automatically refreshed every 10 minutes)

About weather observations | Map of weather stations | Latest weather observations for NSW | Other Formats
Station Details ID: 066051 Name: LITTLE BAY (THE COAST GOLF CLUB) Lat: -33.98 Lon: 151.25 Height: 22.0 m
Data from the previous 72 hours. | See also: Recent months for locations in New South Wales
Date/Time
EST
Temp
°C
App
Temp
°C
Dew
Point
Rel
Hum
%
Delta-T
°C
Wind Press
QNH
hPa
Press
MSL
hPa
Rain
since 9 am
mm
Dir
 
Spd
km/h
Gust
km/h
Spd
kts
Gust
kts
28/11:30pm - - - - - NW 7 13 4 7 - - -
28/11:00pm - - - - - NNW 7 13 4 7 - - -
28/10:30pm - - - - - NNW 9 13 5 7 - - -
28/10:00pm - - - - - NNW 9 11 5 6 - - -
28/09:30pm - - - - - NNW 9 15 5 8 - - -
28/09:00pm - - - - - NNW 9 13 5 7 - - -
28/08:30pm - - - - - NW 7 13 4 7 - - -
28/08:00pm - - - - - WNW 6 7 3 4 - - -
28/07:30pm - - - - - NW 4 7 2 4 - - -
28/07:00pm - - - - - NNW 6 7 3 4 - - -
28/06:30pm - - - - - NNW 6 7 3 4 - - -
28/06:00pm - - - - - N 7 9 4 5 - - -
28/05:30pm - - - - - N 7 11 4 6 - - -
28/05:00pm - - - - - N 7 13 4 7 - - -
28/04:30pm - - - - - N 9 13 5 7 - - -
28/04:00pm - - - - - N 11 17 6 9 - - -
28/03:30pm - - - - - N 11 17 6 9 - - -
28/03:00pm - - - - - N 11 17 6 9 - - -
28/02:30pm - - - - - NNE 15 19 8 10 - - -
28/02:00pm - - - - - NNE 15 19 8 10 - - -
28/01:30pm - - - - - NNE 13 17 7 9 - - -
28/01:00pm - - - - - NE 13 17 7 9 - - -
28/12:30pm - - - - - NE 9 13 5 7 - - -
28/12:00pm - - - - - N 9 13 5 7 - - -
28/11:30am - - - - - N 6 9 3 5 - - -
28/11:00am - - - - - WNW 9 15 5 8 - - -
28/10:30am - - - - - WNW 15 22 8 12 - - -
28/10:00am - - - - - W 17 20 9 11 - - -
28/09:30am - - - - - WNW 15 19 8 10 - - -
28/09:00am - - - - - WNW 13 20 7 11 - - -
28/08:30am - - - - - WNW 13 17 7 9 - - -
28/08:00am - - - - - WNW 15 20 8 11 - - -
28/07:30am - - - - - WNW 15 20 8 11 - - -
28/07:00am - - - - - WNW 17 20 9 11 - - -
28/06:30am - - - - - WNW 17 20 9 11 - - -
28/06:00am - - - - - WNW 17 24 9 13 - - -
28/05:30am - - - - - WNW 15 22 8 12 - - -
28/05:00am - - - - - WNW 15 20 8 11 - - -
28/04:30am - - - - - WNW 15 19 8 10 - - -
28/04:00am - - - - - WNW 17 20 9 11 - - -
28/03:30am - - - - - WNW 15 20 8 11 - - -
28/03:00am - - - - - WNW 13 17 7 9 - - -
28/02:30am - - - - - WNW 13 17 7 9 - - -
28/02:00am - - - - - WNW 13 17 7 9 - - -
28/01:30am - - - - - WNW 13 20 7 11 - - -
28/01:00am - - - - - WNW 17 19 9 10 - - -
28/12:30am - - - - - WNW 15 19 8 10 - - -
28/12:00am - - - - - WNW 15 20 8 11 - - -
 
Date/Time
EST
Temp
°C
App
Temp
°C
Dew
Point
Rel
Hum
%
Delta-T
°C
Wind Press
QNH
hPa
Press
MSL
hPa
Rain
since 9 am
mm
Dir
 
Spd
km/h
Gust
km/h
Spd
kts
Gust
kts
27/11:30pm - - - - - WNW 13 17 7 9 - - -
27/11:00pm - - - - - WNW 13 17 7 9 - - -
27/10:30pm - - - - - WNW 11 15 6 8 - - -
27/10:00pm - - - - - WNW 13 17 7 9 - - -
27/09:30pm - - - - - WNW 11 13 6 7 - - -
27/09:00pm - - - - - W 11 15 6 8 - - -
27/08:30pm - - - - - WNW 9 15 5 8 - - -
27/08:00pm - - - - - WNW 9 11 5 6 - - -
27/07:30pm - - - - - WNW 9 11 5 6 - - -
27/07:00pm - - - - - WNW 7 11 4 6 - - -
27/06:30pm - - - - - WNW 7 9 4 5 - - -
27/06:00pm - - - - - WNW 6 9 3 5 - - -
27/05:30pm - - - - - NW 7 11 4 6 - - -
27/05:00pm - - - - - NNW 7 13 4 7 - - -
27/04:30pm - - - - - CALM 0 0 0 0 - - -
27/04:00pm - - - - - W 2 4 1 2 - - -
27/03:30pm - - - - - - - - - - - - -
27/03:00pm - - - - - SW 7 11 4 6 - - -
27/02:30pm - - - - - W 9 13 5 7 - - -
27/02:00pm - - - - - WNW 7 13 4 7 - - -
27/01:30pm - - - - - NNW 7 15 4 8 - - -
27/01:00pm - - - - - N 11 15 6 8 - - -
27/12:30pm - - - - - NW 7 13 4 7 - - -
27/12:00pm - - - - - WNW 11 15 6 8 - - -
27/11:30am - - - - - WNW 11 17 6 9 - - -
27/11:00am - - - - - WNW 13 19 7 10 - - -
27/10:30am - - - - - W 17 22 9 12 - - -
27/10:00am - - - - - WNW 15 19 8 10 - - -
27/09:30am - - - - - WNW 13 19 7 10 - - -
27/09:00am - - - - - WNW 15 20 8 11 - - -
27/08:30am - - - - - WNW 17 22 9 12 - - -
27/08:00am - - - - - WNW 15 22 8 12 - - -
27/07:30am - - - - - WNW 17 22 9 12 - - -
27/07:00am - - - - - WNW 15 20 8 11 - - -
27/06:30am - - - - - WNW 13 15 7 8 - - -
27/06:00am - - - - - WNW 17 20 9 11 - - -
27/05:30am - - - - - WNW 15 20 8 11 - - -
27/05:00am - - - - - WNW 15 19 8 10 - - -
27/04:30am - - - - - WNW 13 15 7 8 - - -
27/04:00am - - - - - WNW 13 19 7 10 - - -
27/03:30am - - - - - WNW 11 15 6 8 - - -
27/03:00am - - - - - WNW 15 22 8 12 - - -
27/02:30am - - - - - WNW 13 19 7 10 - - -
27/02:00am - - - - - WNW 11 19 6 10 - - -
27/01:30am - - - - - WNW 13 19 7 10 - - -
27/01:00am - - - - - WNW 11 17 6 9 - - -
27/12:30am - - - - - WNW 11 15 6 8 - - -
27/12:00am - - - - - WNW 11 15 6 8 - - -
 
Date/Time
EST
Temp
°C
App
Temp
°C
Dew
Point
Rel
Hum
%
Delta-T
°C
Wind Press
QNH
hPa
Press
MSL
hPa
Rain
since 9 am
mm
Dir
 
Spd
km/h
Gust
km/h
Spd
kts
Gust
kts
26/11:30pm - - - - - WNW 7 9 4 5 - - -
26/11:00pm - - - - - WNW 9 15 5 8 - - -
26/10:30pm - - - - - W 11 13 6 7 - - -
26/10:00pm - - - - - W 11 15 6 8 - - -
26/09:30pm - - - - - W 11 13 6 7 - - -
26/09:00pm - - - - - WNW 11 13 6 7 - - -
26/08:30pm - - - - - W 11 15 6 8 - - -
26/08:00pm - - - - - WNW 9 11 5 6 - - -
26/07:30pm - - - - - WNW 9 13 5 7 - - -
26/07:00pm - - - - - W 9 11 5 6 - - -
26/06:30pm - - - - - W 7 7 4 4 - - -
26/06:00pm - - - - - WSW 6 7 3 4 - - -
26/05:30pm - - - - - WSW 6 6 3 3 - - -
26/05:00pm - - - - - SW 6 7 3 4 - - -
26/04:30pm - - - - - SW 4 4 2 2 - - -
26/04:00pm - - - - - SSW 6 7 3 4 - - -
26/03:30pm - - - - - SSW 4 6 2 3 - - -
26/03:00pm - - - - - SSW 7 9 4 5 - - -
26/02:30pm - - - - - SSW 11 17 6 9 - - -
26/02:00pm - - - - - S 11 17 6 9 - - -
26/01:30pm - - - - - SSW 11 15 6 8 - - -
26/01:00pm - - - - - WSW 7 9 4 5 - - -
26/12:30pm - - - - - W 7 9 4 5 - - -
26/12:00pm - - - - - W 9 15 5 8 - - -
26/11:30am - - - - - W 13 19 7 10 - - -
26/11:00am - - - - - W 11 17 6 9 - - -
26/10:30am - - - - - WNW 13 19 7 10 - - -
26/10:00am - - - - - W 11 17 6 9 - - -
26/09:30am - - - - - WNW 13 19 7 10 - - -
26/09:00am - - - - - WNW 17 24 9 13 - - -
26/08:30am - - - - - WNW 19 26 10 14 - - -
26/08:00am - - - - - WNW 20 24 11 13 - - -
26/07:30am - - - - - WNW 19 24 10 13 - - -
26/07:00am - - - - - WNW 19 24 10 13 - - -
26/06:30am - - - - - WNW 17 22 9 12 - - -
26/06:00am - - - - - WNW 15 20 8 11 - - -
26/05:30am - - - - - W 13 20 7 11 - - -
26/05:00am - - - - - W 13 19 7 10 - - -
26/04:30am - - - - - W 11 19 6 10 - - -
26/04:00am - - - - - WNW 17 22 9 12 - - -
26/03:30am - - - - - WNW 15 19 8 10 - - -
26/03:00am - - - - - WNW 15 19 8 10 - - -
26/02:30am - - - - - WNW 13 19 7 10 - - -
26/02:00am - - - - - WNW 13 19 7 10 - - -
26/01:30am - - - - - WNW 13 17 7 9 - - -
26/01:00am - - - - - WNW 11 15 6 8 - - -
26/12:30am - - - - - W 9 11 5 6 - - -
26/12:00am - - - - - W 11 17 6 9 - - -

Other Formats:

Comma delimited format used in spreadsheet applications
http://www.bom.gov.au/fwo/IDN60801/IDN60801.94780.axf

JavaScript Object Notation format (JSON) in row-major order
http://www.bom.gov.au/fwo/IDN60801/IDN60801.94780.json